< < Back
Terminal Aerodrome Forecast


Current Version              Previous Versions:   1  2  3  4  5  6  7  8  9  

Terminal Aerodrome Forecast

824
FTUS42 KMLB 260541
TAFDAB
TAF
KDAB 260541Z 2606/2706 20010KT P6SM SCT250
     FM261300 26013G20KT P6SM VCSH SCT020 SCT060 BKN110
     FM270000 25011KT P6SM VCSH SCT050 BKN150=



Latest METAR

624
SAUS80 KWBC 260800 RRA
MTRDAB
METAR KDAB 260753Z 23013G17KT 8SM SCT014 24/23 A2973 RMK AO2 SLP067
T02440228


USA.gov is the U.S. government's official web portal to all federal, state and local government web resources and services.